sensor_id;sensor_type;location;lat;lon;timestamp;pressure;altitude;pressure_sealevel;temperature;humidity
80124;BME280;69433;48.642;9.142;2023-06-10T00:00:13;96620.06;;;23.58;40.44
80124;BME280;69433;48.642;9.142;2023-06-10T00:02:40;96617.53;;;23.51;40.36
80124;BME280;69433;48.642;9.142;2023-06-10T00:05:13;96614.03;;;23.54;40.27
80124;BME280;69433;48.642;9.142;2023-06-10T00:07:38;96618.97;;;23.56;40.24
80124;BME280;69433;48.642;9.142;2023-06-10T00:10:07;96617.59;;;23.48;40.75
80124;BME280;69433;48.642;9.142;2023-06-10T00:12:32;96616.72;;;23.54;40.21
80124;BME280;69433;48.642;9.142;2023-06-10T00:15:03;96619.81;;;23.53;40.03
80124;BME280;69433;48.642;9.142;2023-06-10T00:17:28;96615.19;;;23.53;40.48
80124;BME280;69433;48.642;9.142;2023-06-10T00:19:54;96626.38;;;23.48;40.57
80124;BME280;69433;48.642;9.142;2023-06-10T00:22:20;96616.81;;;23.47;40.30
80124;BME280;69433;48.642;9.142;2023-06-10T00:24:56;96620.22;;;23.51;40.30
80124;BME280;69433;48.642;9.142;2023-06-10T00:27:22;96620.69;;;23.46;40.50
80124;BME280;69433;48.642;9.142;2023-06-10T00:29:47;96618.00;;;23.46;40.45
80124;BME280;69433;48.642;9.142;2023-06-10T00:32:12;96613.22;;;23.38;40.37
80124;BME280;69433;48.642;9.142;2023-06-10T00:34:38;96614.06;;;23.35;40.24
80124;BME280;69433;48.642;9.142;2023-06-10T00:37:03;96613.31;;;23.34;40.31
80124;BME280;69433;48.642;9.142;2023-06-10T00:39:28;96610.22;;;23.36;40.43
80124;BME280;69433;48.642;9.142;2023-06-10T00:41:53;96617.81;;;23.37;40.40
80124;BME280;69433;48.642;9.142;2023-06-10T00:44:19;96604.91;;;23.32;40.29
80124;BME280;69433;48.642;9.142;2023-06-10T00:46:51;96615.63;;;23.32;39.94
80124;BME280;69433;48.642;9.142;2023-06-10T00:49:18;96617.97;;;23.30;40.58
80124;BME280;69433;48.642;9.142;2023-06-10T00:51:43;96611.03;;;23.33;40.00
80124;BME280;69433;48.642;9.142;2023-06-10T00:54:09;96617.97;;;23.30;40.13
80124;BME280;69433;48.642;9.142;2023-06-10T00:56:35;96611.03;;;23.33;40.05
80124;BME280;69433;48.642;9.142;2023-06-10T00:59:00;96624.09;;;23.30;40.11
80124;BME280;69433;48.642;9.142;2023-06-10T01:01:25;96613.31;;;23.34;40.39
80124;BME280;69433;48.642;9.142;2023-06-10T01:03:51;96609.88;;;23.34;40.21
80124;BME280;69433;48.642;9.142;2023-06-10T01:06:25;96609.94;;;23.46;39.53
80124;BME280;69433;48.642;9.142;2023-06-10T01:09:09;96616.47;;;23.29;39.98
80124;BME280;69433;48.642;9.142;2023-06-10T01:11:42;96619.66;;;23.24;39.92
80124;BME280;69433;48.642;9.142;2023-06-10T01:14:11;96613.47;;;23.07;40.23
80124;BME280;69433;48.642;9.142;2023-06-10T01:16:37;96609.38;;;23.03;40.50
80124;BME280;69433;48.642;9.142;2023-06-10T01:19:06;96607.09;;;23.01;40.41
80124;BME280;69433;48.642;9.142;2023-06-10T01:21:31;96604.75;;;23.03;40.35
80124;BME280;69433;48.642;9.142;2023-06-10T01:23:57;96602.84;;;23.04;40.19
80124;BME280;69433;48.642;9.142;2023-06-10T01:26:28;96604.00;;;23.03;40.20
80124;BME280;69433;48.642;9.142;2023-06-10T01:29:00;96601.78;;;22.98;40.38
80124;BME280;69433;48.642;9.142;2023-06-10T01:31:54;96606.19;;;23.08;40.21
80124;BME280;69433;48.642;9.142;2023-06-10T01:34:23;96592.88;;;23.04;40.34
80124;BME280;69433;48.642;9.142;2023-06-10T01:36:50;96601.56;;;23.08;40.13
80124;BME280;69433;48.642;9.142;2023-06-10T01:39:17;96603.66;;;23.01;40.23
80124;BME280;69433;48.642;9.142;2023-06-10T01:41:43;96602.34;;;23.09;40.03
80124;BME280;69433;48.642;9.142;2023-06-10T01:44:09;96608.63;;;23.02;39.95
80124;BME280;69433;48.642;9.142;2023-06-10T01:46:37;96614.03;;;22.99;40.08
80124;BME280;69433;48.642;9.142;2023-06-10T01:49:02;96606.50;;;22.93;40.05
80124;BME280;69433;48.642;9.142;2023-06-10T01:51:27;96615.47;;;23.03;40.06
80124;BME280;69433;48.642;9.142;2023-06-10T01:53:52;96607.16;;;22.98;39.82
80124;BME280;69433;48.642;9.142;2023-06-10T01:56:18;96607.91;;;22.98;39.66
80124;BME280;69433;48.642;9.142;2023-06-10T01:58:45;96614.72;;;23.03;39.90
80124;BME280;69433;48.642;9.142;2023-06-10T02:01:11;96612.47;;;23.01;39.99
80124;BME280;69433;48.642;9.142;2023-06-10T02:03:36;96616.91;;;23.08;39.76
80124;BME280;69433;48.642;9.142;2023-06-10T02:06:02;96616.25;;;23.04;39.66
80124;BME280;69433;48.642;9.142;2023-06-10T02:08:27;96615.44;;;23.07;39.82
80124;BME280;69433;48.642;9.142;2023-06-10T02:10:53;96618.16;;;23.03;39.58
80124;BME280;69433;48.642;9.142;2023-06-10T02:13:19;96621.59;;;23.04;39.62
80124;BME280;69433;48.642;9.142;2023-06-10T02:15:44;96620.84;;;23.03;39.81
80124;BME280;69433;48.642;9.142;2023-06-10T02:18:10;96627.38;;;23.02;39.98
80124;BME280;69433;48.642;9.142;2023-06-10T02:20:36;96619.13;;;22.93;39.79
80124;BME280;69433;48.642;9.142;2023-06-10T02:23:02;96625.19;;;22.97;39.89
80124;BME280;69433;48.642;9.142;2023-06-10T02:25:27;96622.63;;;22.90;39.74
80124;BME280;69433;48.642;9.142;2023-06-10T02:28:00;96616.19;;;22.87;40.06
80124;BME280;69433;48.642;9.142;2023-06-10T02:30:28;96621.97;;;22.86;39.84
80124;BME280;69433;48.642;9.142;2023-06-10T02:32:53;96628.28;;;22.96;39.66
80124;BME280;69433;48.642;9.142;2023-06-10T02:35:25;96623.41;;;22.90;40.18
80124;BME280;69433;48.642;9.142;2023-06-10T02:37:50;96633.56;;;22.79;40.13
80124;BME280;69433;48.642;9.142;2023-06-10T02:40:15;96628.75;;;22.90;39.76
80124;BME280;69433;48.642;9.142;2023-06-10T02:42:41;96635.41;;;23.02;39.61
80124;BME280;69433;48.642;9.142;2023-06-10T02:45:07;96639.00;;;22.96;39.92
80124;BME280;69433;48.642;9.142;2023-06-10T02:47:32;96646.50;;;22.84;39.80
80124;BME280;69433;48.642;9.142;2023-06-10T02:50:00;96643.41;;;22.86;39.87
80124;BME280;69433;48.642;9.142;2023-06-10T02:52:25;96648.00;;;22.85;39.91
80124;BME280;69433;48.642;9.142;2023-06-10T02:54:50;96643.41;;;22.86;39.96
80124;BME280;69433;48.642;9.142;2023-06-10T02:57:15;96641.06;;;22.88;39.63
80124;BME280;69433;48.642;9.142;2023-06-10T02:59:44;96645.34;;;22.85;39.60
80124;BME280;69433;48.642;9.142;2023-06-10T03:02:10;96648.97;;;22.75;39.83
80124;BME280;69433;48.642;9.142;2023-06-10T03:04:37;96643.97;;;22.77;39.99
80124;BME280;69433;48.642;9.142;2023-06-10T03:07:04;96646.66;;;22.77;39.63
80124;BME280;69433;48.642;9.142;2023-06-10T03:09:32;96651.66;;;22.75;39.78
80124;BME280;69433;48.642;9.142;2023-06-10T03:11:57;96639.00;;;22.76;39.68
80124;BME280;69433;48.642;9.142;2023-06-10T03:14:23;96642.72;;;22.82;39.57
80124;BME280;69433;48.642;9.142;2023-06-10T03:16:51;96653.50;;;22.78;39.67
80124;BME280;69433;48.642;9.142;2023-06-10T03:19:17;96649.72;;;22.76;39.46
80124;BME280;69433;48.642;9.142;2023-06-10T03:21:44;96657.44;;;22.70;39.54
80124;BME280;69433;48.642;9.142;2023-06-10T03:24:10;96655.94;;;22.69;39.58
80124;BME280;69433;48.642;9.142;2023-06-10T03:26:36;96661.28;;;22.69;39.83
80124;BME280;69433;48.642;9.142;2023-06-10T03:29:01;96658.16;;;22.74;39.50
80124;BME280;69433;48.642;9.142;2023-06-10T03:31:30;96660.81;;;22.74;39.50
80124;BME280;69433;48.642;9.142;2023-06-10T03:33:55;96666.97;;;22.75;39.52
80124;BME280;69433;48.642;9.142;2023-06-10T03:36:21;96665.72;;;22.79;39.46
80124;BME280;69433;48.642;9.142;2023-06-10T03:38:52;96663.88;;;22.76;39.47
80124;BME280;69433;48.642;9.142;2023-06-10T03:41:18;96657.28;;;22.81;39.29
80124;BME280;69433;48.642;9.142;2023-06-10T03:43:44;96661.13;;;22.80;39.45
80124;BME280;69433;48.642;9.142;2023-06-10T03:46:09;96662.00;;;22.73;39.30
80124;BME280;69433;48.642;9.142;2023-06-10T03:48:35;96672.34;;;22.75;39.30
80124;BME280;69433;48.642;9.142;2023-06-10T03:51:01;96669.00;;;22.67;39.42
80124;BME280;69433;48.642;9.142;2023-06-10T03:53:27;96670.84;;;22.70;39.46
80124;BME280;69433;48.642;9.142;2023-06-10T03:55:53;96681.56;;;22.70;39.43
80124;BME280;69433;48.642;9.142;2023-06-10T03:58:18;96683.97;;;22.65;39.50
80124;BME280;69433;48.642;9.142;2023-06-10T04:00:43;96693.97;;;22.61;39.78
80124;BME280;69433;48.642;9.142;2023-06-10T04:03:21;96690.50;;;22.64;39.35
80124;BME280;69433;48.642;9.142;2023-06-10T04:05:48;96691.38;;;22.57;39.53
80124;BME280;69433;48.642;9.142;2023-06-10T04:08:13;96692.97;;;22.54;39.67
80124;BME280;69433;48.642;9.142;2023-06-10T04:10:40;96689.75;;;22.63;39.56
80124;BME280;69433;48.642;9.142;2023-06-10T04:13:05;96695.44;;;22.65;39.57
80124;BME280;69433;48.642;9.142;2023-06-10T04:15:31;96696.97;;;22.66;39.45
80124;BME280;69433;48.642;9.142;2023-06-10T04:17:58;96701.84;;;22.71;39.32
80124;BME280;69433;48.642;9.142;2023-06-10T04:20:24;96693.41;;;22.73;39.07
80124;BME280;69433;48.642;9.142;2023-06-10T04:22:49;96704.53;;;22.71;39.41
80124;BME280;69433;48.642;9.142;2023-06-10T04:25:14;96692.53;;;22.79;39.20
80124;BME280;69433;48.642;9.142;2023-06-10T04:27:39;96695.66;;;22.78;39.18
80124;BME280;69433;48.642;9.142;2023-06-10T04:30:05;96697.88;;;22.79;39.18
80124;BME280;69433;48.642;9.142;2023-06-10T04:32:31;96699.41;;;22.80;39.11
80124;BME280;69433;48.642;9.142;2023-06-10T04:34:56;96703.59;;;22.81;39.12
80124;BME280;69433;48.642;9.142;2023-06-10T04:37:21;96700.56;;;22.79;39.19
80124;BME280;69433;48.642;9.142;2023-06-10T04:39:47;96700.09;;;22.84;39.22
80124;BME280;69433;48.642;9.142;2023-06-10T04:42:12;96699.75;;;22.82;39.30
80124;BME280;69433;48.642;9.142;2023-06-10T04:44:37;96705.59;;;22.77;39.25
80124;BME280;69433;48.642;9.142;2023-06-10T04:47:04;96701.81;;;22.75;39.21
80124;BME280;69433;48.642;9.142;2023-06-10T04:49:30;96711.75;;;22.74;39.29
80124;BME280;69433;48.642;9.142;2023-06-10T04:51:56;96703.41;;;22.69;39.42
80124;BME280;69433;48.642;9.142;2023-06-10T04:54:21;96706.44;;;22.71;39.52
80124;BME280;69433;48.642;9.142;2023-06-10T04:56:46;96710.97;;;22.77;39.45
80124;BME280;69433;48.642;9.142;2023-06-10T04:59:13;96705.94;;;22.79;39.56
80124;BME280;69433;48.642;9.142;2023-06-10T05:01:39;96703.53;;;22.85;39.52
80124;BME280;69433;48.642;9.142;2023-06-10T05:04:04;96700.09;;;22.84;39.39
80124;BME280;69433;48.642;9.142;2023-06-10T05:06:30;96700.78;;;22.88;39.39
80124;BME280;69433;48.642;9.142;2023-06-10T05:09:01;96709.16;;;22.90;39.13
80124;BME280;69433;48.642;9.142;2023-06-10T05:11:26;96704.50;;;22.94;39.22
80124;BME280;69433;48.642;9.142;2023-06-10T05:13:52;96709.38;;;23.00;39.09
80124;BME280;69433;48.642;9.142;2023-06-10T05:16:17;96709.78;;;22.98;38.89
80124;BME280;69433;48.642;9.142;2023-06-10T05:18:43;96713.56;;;23.01;38.98
80124;BME280;69433;48.642;9.142;2023-06-10T05:21:08;96716.63;;;23.03;39.03
80124;BME280;69433;48.642;9.142;2023-06-10T05:23:34;96710.84;;;23.04;39.25
80124;BME280;69433;48.642;9.142;2023-06-10T05:25:59;96712.63;;;23.11;38.93
80124;BME280;69433;48.642;9.142;2023-06-10T05:28:25;96714.13;;;23.12;38.85
80124;BME280;69433;48.642;9.142;2023-06-10T05:30:51;96713.44;;;23.08;39.06
80124;BME280;69433;48.642;9.142;2023-06-10T05:33:16;96717.97;;;23.11;39.07
80124;BME280;69433;48.642;9.142;2023-06-10T05:35:41;96718.69;;;23.15;39.01
80124;BME280;69433;48.642;9.142;2023-06-10T05:38:07;96720.41;;;23.05;39.18
80124;BME280;69433;48.642;9.142;2023-06-10T05:40:32;96718.78;;;23.08;39.25
80124;BME280;69433;48.642;9.142;2023-06-10T05:42:57;96718.47;;;23.06;39.47
80124;BME280;69433;48.642;9.142;2023-06-10T05:45:23;96722.53;;;23.14;39.36
80124;BME280;69433;48.642;9.142;2023-06-10T05:47:49;96719.34;;;23.19;39.35
80124;BME280;69433;48.642;9.142;2023-06-10T05:50:15;96719.34;;;23.19;39.37
80124;BME280;69433;48.642;9.142;2023-06-10T05:52:40;96716.66;;;23.19;39.42
80124;BME280;69433;48.642;9.142;2023-06-10T05:55:09;96723.09;;;23.25;39.50
80124;BME280;69433;48.642;9.142;2023-06-10T05:57:34;96721.38;;;23.15;39.78
80124;BME280;69433;48.642;9.142;2023-06-10T06:00:00;96718.34;;;23.13;39.95
80124;BME280;69433;48.642;9.142;2023-06-10T06:02:25;96728.44;;;23.25;39.83
80124;BME280;69433;48.642;9.142;2023-06-10T06:04:50;96733.25;;;23.53;39.38
80124;BME280;69433;48.642;9.142;2023-06-10T06:07:16;96726.75;;;23.71;39.15
80124;BME280;69433;48.642;9.142;2023-06-10T06:09:41;96725.69;;;23.84;38.82
80124;BME280;69433;48.642;9.142;2023-06-10T06:12:08;96725.84;;;23.93;38.82
80124;BME280;69433;48.642;9.142;2023-06-10T06:14:37;96721.84;;;24.01;38.63
80124;BME280;69433;48.642;9.142;2023-06-10T06:17:03;96726.63;;;24.10;38.44
80124;BME280;69433;48.642;9.142;2023-06-10T06:19:28;96727.22;;;24.18;38.73
80124;BME280;69433;48.642;9.142;2023-06-10T06:21:54;96724.50;;;24.21;38.49
80124;BME280;69433;48.642;9.142;2023-06-10T06:24:19;96727.84;;;24.25;38.46
80124;BME280;69433;48.642;9.142;2023-06-10T06:26:44;96717.78;;;24.29;38.45
80124;BME280;69433;48.642;9.142;2023-06-10T06:29:10;96726.81;;;24.35;38.17
80124;BME280;69433;48.642;9.142;2023-06-10T06:31:35;96727.09;;;24.41;38.06
80124;BME280;69433;48.642;9.142;2023-06-10T06:34:00;96733.47;;;24.47;38.10
80124;BME280;69433;48.642;9.142;2023-06-10T06:36:26;96726.38;;;24.53;38.35
80124;BME280;69433;48.642;9.142;2023-06-10T06:38:51;96730.94;;;24.56;38.07
80124;BME280;69433;48.642;9.142;2023-06-10T06:41:17;96735.03;;;24.61;38.25
80124;BME280;69433;48.642;9.142;2023-06-10T06:43:44;96731.50;;;24.64;38.18
80124;BME280;69433;48.642;9.142;2023-06-10T06:46:10;96735.22;;;24.70;38.46
80124;BME280;69433;48.642;9.142;2023-06-10T06:48:35;96737.38;;;24.75;38.12
80124;BME280;69433;48.642;9.142;2023-06-10T06:51:00;96741.03;;;24.81;38.05
80124;BME280;69433;48.642;9.142;2023-06-10T06:53:26;96732.47;;;24.86;38.39
80124;BME280;69433;48.642;9.142;2023-06-10T06:55:51;96734.75;;;24.88;37.96
80124;BME280;69433;48.642;9.142;2023-06-10T06:58:22;96737.31;;;24.91;38.14
80124;BME280;69433;48.642;9.142;2023-06-10T07:00:48;96746.84;;;24.96;38.29
80124;BME280;69433;48.642;9.142;2023-06-10T07:03:13;96739.00;;;25.01;38.27
80124;BME280;69433;48.642;9.142;2023-06-10T07:05:38;96742.69;;;25.07;38.00
80124;BME280;69433;48.642;9.142;2023-06-10T07:08:04;96746.38;;;25.13;38.38
80124;BME280;69433;48.642;9.142;2023-06-10T07:10:30;96750.03;;;25.20;38.10
80124;BME280;69433;48.642;9.142;2023-06-10T07:12:55;96747.25;;;25.23;38.20
80124;BME280;69433;48.642;9.142;2023-06-10T07:15:20;96746.53;;;25.35;37.91
80124;BME280;69433;48.642;9.142;2023-06-10T07:17:46;96743.22;;;25.44;37.88
80124;BME280;69433;48.642;9.142;2023-06-10T07:20:19;96744.88;;;25.54;38.03
80124;BME280;69433;48.642;9.142;2023-06-10T07:22:53;96745.84;;;25.60;38.02
80124;BME280;69433;48.642;9.142;2023-06-10T07:25:18;96742.94;;;25.67;37.90
80124;BME280;69433;48.642;9.142;2023-06-10T07:27:44;96743.19;;;25.73;37.88
80124;BME280;69433;48.642;9.142;2023-06-10T07:30:09;96740.06;;;25.74;37.95
80124;BME280;69433;48.642;9.142;2023-06-10T07:32:36;96742.88;;;25.83;37.92
80124;BME280;69433;48.642;9.142;2023-06-10T07:35:09;96739.31;;;25.86;37.63
80124;BME280;69433;48.642;9.142;2023-06-10T07:37:37;96748.38;;;25.93;37.59
80124;BME280;69433;48.642;9.142;2023-06-10T07:40:03;96739.09;;;25.94;37.71
80124;BME280;69433;48.642;9.142;2023-06-10T07:42:35;96744.06;;;25.95;37.59
80124;BME280;69433;48.642;9.142;2023-06-10T07:45:06;96745.13;;;25.98;37.32
80124;BME280;69433;48.642;9.142;2023-06-10T07:47:34;96741.56;;;26.01;37.40
80124;BME280;69433;48.642;9.142;2023-06-10T07:50:00;96736.81;;;26.05;37.46
80124;BME280;69433;48.642;9.142;2023-06-10T07:52:34;96737.91;;;26.07;37.21
80124;BME280;69433;48.642;9.142;2023-06-10T07:55:00;96731.13;;;26.03;37.66
80124;BME280;69433;48.642;9.142;2023-06-10T07:57:25;96738.78;;;26.04;37.42
80124;BME280;69433;48.642;9.142;2023-06-10T07:59:50;96736.38;;;26.06;37.26
80124;BME280;69433;48.642;9.142;2023-06-10T08:02:16;96740.16;;;26.09;37.58
80124;BME280;69433;48.642;9.142;2023-06-10T08:04:41;96742.53;;;26.07;37.37
80124;BME280;69433;48.642;9.142;2023-06-10T08:07:06;96733.59;;;26.10;37.28
80124;BME280;69433;48.642;9.142;2023-06-10T08:09:31;96749.66;;;26.13;37.56
80124;BME280;69433;48.642;9.142;2023-06-10T08:11:57;96739.50;;;26.17;37.58
80124;BME280;69433;48.642;9.142;2023-06-10T08:14:22;96740.91;;;26.22;37.27
80124;BME280;69433;48.642;9.142;2023-06-10T08:16:47;96732.72;;;26.25;37.24
80124;BME280;69433;48.642;9.142;2023-06-10T08:19:13;96736.50;;;26.28;37.47
80124;BME280;69433;48.642;9.142;2023-06-10T08:21:46;96728.31;;;26.32;37.74
80124;BME280;69433;48.642;9.142;2023-06-10T08:24:12;96732.81;;;26.35;38.09
80124;BME280;69433;48.642;9.142;2023-06-10T08:26:39;96731.88;;;26.41;37.81
80124;BME280;69433;48.642;9.142;2023-06-10T08:29:04;96737.13;;;26.45;37.94
80124;BME280;69433;48.642;9.142;2023-06-10T08:31:29;96738.53;;;26.49;37.50
80124;BME280;69433;48.642;9.142;2023-06-10T08:33:55;96736.16;;;26.51;37.96
80124;BME280;69433;48.642;9.142;2023-06-10T08:36:20;96727.19;;;26.54;37.49
80124;BME280;69433;48.642;9.142;2023-06-10T08:38:45;96743.69;;;26.56;37.71
80124;BME280;69433;48.642;9.142;2023-06-10T08:41:14;96734.72;;;26.59;37.73
80124;BME280;69433;48.642;9.142;2023-06-10T08:43:46;96729.34;;;26.59;37.48
80124;BME280;69433;48.642;9.142;2023-06-10T08:46:14;96732.03;;;26.59;37.74
80124;BME280;69433;48.642;9.142;2023-06-10T08:48:42;96739.22;;;26.63;37.61
80124;BME280;69433;48.642;9.142;2023-06-10T08:51:09;96732.22;;;26.65;37.80
80124;BME280;69433;48.642;9.142;2023-06-10T08:53:38;96725.22;;;26.68;37.91
80124;BME280;69433;48.642;9.142;2023-06-10T08:56:07;96737.19;;;26.67;37.92
80124;BME280;69433;48.642;9.142;2023-06-10T08:58:34;96737.50;;;26.69;38.05
80124;BME280;69433;48.642;9.142;2023-06-10T09:01:05;96733.19;;;26.71;38.09
80124;BME280;69433;48.642;9.142;2023-06-10T09:03:31;96735.44;;;26.73;38.31
80124;BME280;69433;48.642;9.142;2023-06-10T09:05:57;96733.06;;;26.75;38.30
80124;BME280;69433;48.642;9.142;2023-06-10T09:08:23;96738.00;;;26.76;38.01
80124;BME280;69433;48.642;9.142;2023-06-10T09:10:51;96728.31;;;26.79;37.86
80124;BME280;69433;48.642;9.142;2023-06-10T09:13:16;96735.22;;;26.80;38.01
80124;BME280;69433;48.642;9.142;2023-06-10T09:15:43;96732.19;;;26.78;37.94
80124;BME280;69433;48.642;9.142;2023-06-10T09:18:09;96740.59;;;26.80;37.82
80124;BME280;69433;48.642;9.142;2023-06-10T09:20:35;96728.91;;;26.83;37.88
80124;BME280;69433;48.642;9.142;2023-06-10T09:23:01;96724.28;;;26.83;37.79
80124;BME280;69433;48.642;9.142;2023-06-10T09:25:44;96729.56;;;26.87;37.96
80124;BME280;69433;48.642;9.142;2023-06-10T09:28:14;96725.69;;;26.88;37.72
80124;BME280;69433;48.642;9.142;2023-06-10T09:30:40;96731.06;;;26.88;37.80
80124;BME280;69433;48.642;9.142;2023-06-10T09:33:15;96727.19;;;26.89;37.99
80124;BME280;69433;48.642;9.142;2023-06-10T09:35:48;96728.69;;;26.90;37.71
80124;BME280;69433;48.642;9.142;2023-06-10T09:38:21;96730.22;;;26.91;37.66
80124;BME280;69433;48.642;9.142;2023-06-10T09:40:54;96727.06;;;26.92;38.16
80124;BME280;69433;48.642;9.142;2023-06-10T09:43:20;96720.94;;;26.92;38.17
80124;BME280;69433;48.642;9.142;2023-06-10T09:45:49;96721.69;;;26.92;38.10
80124;BME280;69433;48.642;9.142;2023-06-10T09:48:15;96716.72;;;26.91;38.27
80124;BME280;69433;48.642;9.142;2023-06-10T09:50:44;96711.66;;;26.93;38.54
80124;BME280;69433;48.642;9.142;2023-06-10T09:53:17;96712.28;;;26.97;38.50
80124;BME280;69433;48.642;9.142;2023-06-10T09:55:42;96726.84;;;27.00;38.42
80124;BME280;69433;48.642;9.142;2023-06-10T09:58:07;96720.28;;;27.01;38.42
80124;BME280;69433;48.642;9.142;2023-06-10T10:00:34;96723.69;;;27.01;38.56
80124;BME280;69433;48.642;9.142;2023-06-10T10:02:59;96722.97;;;27.01;38.37
80124;BME280;69433;48.642;9.142;2023-06-10T10:05:28;96724.00;;;27.03;38.61
80124;BME280;69433;48.642;9.142;2023-06-10T10:07:55;96724.75;;;27.04;38.33
80124;BME280;69433;48.642;9.142;2023-06-10T10:10:24;96718.19;;;27.05;38.64
80124;BME280;69433;48.642;9.142;2023-06-10T10:12:56;96715.03;;;27.06;38.44
80124;BME280;69433;48.642;9.142;2023-06-10T10:15:23;96718.06;;;27.08;38.59
80124;BME280;69433;48.642;9.142;2023-06-10T10:18:00;96708.78;;;27.09;38.44
80124;BME280;69433;48.642;9.142;2023-06-10T10:20:27;96714.94;;;27.10;38.48
80124;BME280;69433;48.642;9.142;2023-06-10T10:22:56;96709.06;;;27.11;38.59
80124;BME280;69433;48.642;9.142;2023-06-10T10:25:30;96708.78;;;27.09;38.45
80124;BME280;69433;48.642;9.142;2023-06-10T10:28:03;96702.91;;;27.11;38.75
80124;BME280;69433;48.642;9.142;2023-06-10T10:30:39;96701.72;;;27.12;38.83
80124;BME280;69433;48.642;9.142;2023-06-10T10:35:35;96696.97;;;27.16;39.09
80124;BME280;69433;48.642;9.142;2023-06-10T10:38:02;96695.34;;;27.18;38.75
80124;BME280;69433;48.642;9.142;2023-06-10T10:40:28;96702.53;;;27.21;38.79
80124;BME280;69433;48.642;9.142;2023-06-10T10:42:58;96698.22;;;27.24;38.99
80124;BME280;69433;48.642;9.142;2023-06-10T10:45:24;96702.09;;;27.23;39.10
80124;BME280;69433;48.642;9.142;2023-06-10T10:47:53;96700.47;;;27.25;39.18
80124;BME280;69433;48.642;9.142;2023-06-10T10:50:20;96695.09;;;27.25;39.29
80124;BME280;69433;48.642;9.142;2023-06-10T10:55:17;96694.31;;;27.25;38.70
80124;BME280;69433;48.642;9.142;2023-06-10T10:57:43;96688.94;;;27.25;39.38
80124;BME280;69433;48.642;9.142;2023-06-10T11:00:09;96697.03;;;27.25;39.35
80124;BME280;69433;48.642;9.142;2023-06-10T11:02:42;96693.13;;;27.26;39.32
80124;BME280;69433;48.642;9.142;2023-06-10T11:05:15;96693.88;;;27.26;39.32
80124;BME280;69433;48.642;9.142;2023-06-10T11:07:56;96694.97;;;27.29;39.43
80124;BME280;69433;48.642;9.142;2023-06-10T11:10:39;96698.41;;;27.29;39.19
80124;BME280;69433;48.642;9.142;2023-06-10T11:13:14;96699.28;;;27.26;39.68
80124;BME280;69433;48.642;9.142;2023-06-10T11:15:49;96692.25;;;27.29;39.77
80124;BME280;69433;48.642;9.142;2023-06-10T11:21:03;96680.13;;;27.33;39.95
80124;BME280;69433;48.642;9.142;2023-06-10T11:26:29;96678.81;;;27.38;39.91
80124;BME280;69433;48.642;9.142;2023-06-10T11:29:03;96690.03;;;27.37;39.91
80124;BME280;69433;48.642;9.142;2023-06-10T11:31:30;96688.09;;;27.37;39.85
80124;BME280;69433;48.642;9.142;2023-06-10T11:34:01;96679.25;;;27.37;39.73
80124;BME280;69433;48.642;9.142;2023-06-10T11:36:28;96671.91;;;27.37;39.76
80124;BME280;69433;48.642;9.142;2023-06-10T11:38:59;96670.84;;;27.34;39.87
80124;BME280;69433;48.642;9.142;2023-06-10T11:41:26;96677.00;;;27.35;39.39
80124;BME280;69433;48.642;9.142;2023-06-10T11:43:52;96676.66;;;27.33;39.67
80124;BME280;69433;48.642;9.142;2023-06-10T11:46:21;96675.91;;;27.32;39.76
80124;BME280;69433;48.642;9.142;2023-06-10T11:48:51;96667.81;;;27.32;39.69
80124;BME280;69433;48.642;9.142;2023-06-10T11:51:17;96670.84;;;27.34;39.70
80124;BME280;69433;48.642;9.142;2023-06-10T11:53:49;96670.84;;;27.34;39.72
80124;BME280;69433;48.642;9.142;2023-06-10T11:56:25;96663.81;;;27.37;39.80
80124;BME280;69433;48.642;9.142;2023-06-10T11:58:53;96654.50;;;27.38;39.69
80124;BME280;69433;48.642;9.142;2023-06-10T12:01:24;96658.72;;;27.39;39.85
80124;BME280;69433;48.642;9.142;2023-06-10T12:04:03;96664.56;;;27.38;39.43
80124;BME280;69433;48.642;9.142;2023-06-10T12:09:21;96659.91;;;27.38;39.23
80124;BME280;69433;48.642;9.142;2023-06-10T12:11:57;96657.66;;;27.37;39.10
80124;BME280;69433;48.642;9.142;2023-06-10T12:20:05;96651.81;;;27.38;38.86
80124;BME280;69433;48.642;9.142;2023-06-10T12:22:42;96642.97;;;27.38;38.85
80124;BME280;69433;48.642;9.142;2023-06-10T12:25:27;96651.34;;;27.40;38.82
80124;BME280;69433;48.642;9.142;2023-06-10T12:27:54;96649.88;;;27.39;38.39
80124;BME280;69433;48.642;9.142;2023-06-10T12:30:20;96647.47;;;27.41;38.51
80124;BME280;69433;48.642;9.142;2023-06-10T12:32:46;96639.66;;;27.43;38.28
80124;BME280;69433;48.642;9.142;2023-06-10T12:35:15;96645.06;;;27.43;38.37
80124;BME280;69433;48.642;9.142;2023-06-10T12:37:42;96645.38;;;27.45;38.41
80124;BME280;69433;48.642;9.142;2023-06-10T12:40:10;96641.94;;;27.44;38.32
80124;BME280;69433;48.642;9.142;2023-06-10T12:42:36;96648.53;;;27.43;38.42
80124;BME280;69433;48.642;9.142;2023-06-10T12:45:15;96642.06;;;27.41;38.51
80124;BME280;69433;48.642;9.142;2023-06-10T12:48:11;96646.41;;;27.38;38.25
80124;BME280;69433;48.642;9.142;2023-06-10T12:50:42;96640.09;;;27.41;38.18
80124;BME280;69433;48.642;9.142;2023-06-10T12:53:08;96636.66;;;27.41;38.16
80124;BME280;69433;48.642;9.142;2023-06-10T12:55:34;96641.31;;;27.40;38.22
80124;BME280;69433;48.642;9.142;2023-06-10T12:58:03;96633.97;;;27.41;38.08
80124;BME280;69433;48.642;9.142;2023-06-10T13:00:30;96640.88;;;27.42;38.22
80124;BME280;69433;48.642;9.142;2023-06-10T13:02:56;96638.91;;;27.42;38.12
80124;BME280;69433;48.642;9.142;2023-06-10T13:05:23;96639.66;;;27.43;38.01
80124;BME280;69433;48.642;9.142;2023-06-10T13:07:49;96629.63;;;27.43;38.02
80124;BME280;69433;48.642;9.142;2023-06-10T13:10:15;96633.97;;;27.41;37.75
80124;BME280;69433;48.642;9.142;2023-06-10T13:12:46;96627.69;;;27.44;38.19
80124;BME280;69433;48.642;9.142;2023-06-10T13:15:12;96628.88;;;27.43;38.12
80124;BME280;69433;48.642;9.142;2023-06-10T13:17:44;96629.63;;;27.43;37.84
80124;BME280;69433;48.642;9.142;2023-06-10T13:20:14;96624.22;;;27.43;37.97